Palmer Municipal Airport Palmer US
ICAO: PAAQ
IATA:
Category: Medium
Scheduled Services:

Elevation: 242 ft
TransAlt. 18000 ft.

Airport Communications:
ANCHORAGE CNTR:118.6
ASOS:134.75
CTAF:123.6
RDO:123.6
KENAI RDO:123.6

PAAQ Zoom In..

If you have problems with the map follow the link
https://www.worldairports.se/pages/airport.php?
ICAO=PAAQ

Runways:

(A) RW 09 length 3617 ft width 75 ft
---- / hdg 93

(B) RW 16 length 6009 ft width 100 ft
---- / hdg 160

(C) RW 27 length 3617 ft width 75 ft
---- / hdg 273

(D) RW 34 length 6009 ft width 100 ft
---- / hdg 340

Location; PAAQ
Day. 19 / Time. 18.34 Zulu
* Altimeter: 29.31
* Temperature: -01° c. -30.2°f.
* Wind from: 310° Speed 07 kn.
Dewpoint: -02° c.
Visibility: 8 Statute Miles.
Clouds: Overcast 1500 ft.
Conditions: Light Snow.

PAAQ 191834Z 31007KT 8SM -SN OVC015 M01/M02 A2931 RMK AO2 SNE09B34 P0000 T10061022


Wind From 310°
Speed 07 kn.

 
 
jpsmedia worldairports.se 2020   terms of use